WetterOnline ( https://www.wetteronline.de )

Wetter aktuell Albstadt

Aktuelles Wetter: Messstetten (900m)

6-stündlich | Neueste Meldungen
Ortszeit Temperatur Wetter
Mo, 15.04. 14:00 14.4° C wolkig
Mo, 15.04. 8:00 10.9° C wolkig
Mo, 15.04. 2:00 14.4° C wolkig
So, 14.04. 20:00 18.8° C bewölkt
So, 14.04. 14:00 20.6° C leicht bewölkt
So, 14.04. 8:00 15.2° C leicht bewölkt
So, 14.04. 2:00 8.2° C wolkig
Sa, 13.04. 20:00 16.0° C wolkig
Ortszeit Temperatur Wetter
Mo, 15.04. 15:00 14.8° C bewölkt
Mo, 15.04. 14:50 14.8° C bewölkt
Mo, 15.04. 14:40 14.9° C bewölkt
Mo, 15.04. 14:30 13.9° C bewölkt
Mo, 15.04. 14:20 13.9° C bewölkt
Mo, 15.04. 14:10 14.6° C bewölkt
Mo, 15.04. 14:00 14.4° C wolkig
Mo, 15.04. 13:30 12.5° C bewölkt
Mo, 15.04. 13:00 13.3° C bewölkt
Mo, 15.04. 12:30 12.2° C bewölkt
Mo, 15.04. 12:00 11.7° C wolkig
Ortszeit Relative Feuchte Sichtweite
Mo, 15.04. 14:00 67% 50 km
Mo, 15.04. 8:00 90% 30 km
Mo, 15.04. 2:00 61% 65 km
So, 14.04. 20:00 46% 60 km
So, 14.04. 14:00 38% 60 km
So, 14.04. 8:00 55% >70 km
So, 14.04. 2:00 69% 60 km
Sa, 13.04. 20:00 64% 55 km
Ortszeit Relative Feuchte Sichtweite
Mo, 15.04. 15:00 64% 45 km
Mo, 15.04. 14:50 64% -
Mo, 15.04. 14:40 63% -
Mo, 15.04. 14:30 70% 65 km
Mo, 15.04. 14:20 70% -
Mo, 15.04. 14:10 69% -
Mo, 15.04. 14:00 67% 50 km
Mo, 15.04. 13:30 78% 50 km
Mo, 15.04. 13:00 75% 40 km
Mo, 15.04. 12:30 81% 60 km
Mo, 15.04. 12:00 85% 30 km
Ortszeit Niederschlagsmenge Niederschlagsart
Mo, 15.04. 14:00 2 l/m2 in 6 Std. Regen
Mo, 15.04. 8:00 0.3 l/m2 in 12 Std. Regen
Mo, 15.04. 2:00 0.0 l/m2 in 6 Std. -
So, 14.04. 20:00 0.0 l/m2 in 12 Std. -
So, 14.04. 14:00 0.0 l/m2 in 6 Std. -
So, 14.04. 8:00 0.0 l/m2 in 12 Std. -
So, 14.04. 2:00 0.0 l/m2 in 6 Std. -
Sa, 13.04. 20:00 0.0 l/m2 in 12 Std. -
Ortszeit Niederschlagsmenge Niederschlagsart
Mo, 15.04. 15:00 0.0 l/m2 in 1 Std. -
Mo, 15.04. 14:50 keine Meldung -
Mo, 15.04. 14:40 keine Meldung -
Mo, 15.04. 14:30 0.0 l/m2 in 30 Min -
Mo, 15.04. 14:20 keine Meldung -
Mo, 15.04. 14:10 keine Meldung -
Mo, 15.04. 14:00 0.0 l/m2 in 1 Std. Regen
Mo, 15.04. 13:30 0.0 l/m2 in 30 Min -
Mo, 15.04. 13:00 <0.05 l/m2 in 1 Std. -
Mo, 15.04. 12:30 <0.05 l/m2 in 30 Min -
Mo, 15.04. 12:00 0.0 l/m2 in 1 Std. -
Ortszeit Stärke Spitze Richtung
km/h Bft. km/h Grad Sektor
Mo, 15.04. 14:00 20 4 43 270° W
Mo, 15.04. 8:00 7 2 29 270° W
Mo, 15.04. 2:00 11 2 18 240° SW
So, 14.04. 20:00 9 2 33 260° W
So, 14.04. 14:00 17 3 31 300° NW
So, 14.04. 8:00 7 2 18 250° W
So, 14.04. 2:00 6 1 13 200° S
Sa, 13.04. 20:00 4 1 22 190° S
Ortszeit Stärke Spitze Richtung
km/h Bft. km/h Grad Sektor
Mo, 15.04. 15:00 26 4 44 250° W
Mo, 15.04. 14:50 26 4 - 250° W
Mo, 15.04. 14:40 26 4 - 260° W
Mo, 15.04. 14:30 22 4 43 260° W
Mo, 15.04. 14:20 22 4 - 260° W
Mo, 15.04. 14:10 13 3 - 260° W
Mo, 15.04. 14:00 20 4 43 270° W
Mo, 15.04. 13:30 13 3 41 280° W
Mo, 15.04. 13:00 22 4 40 250° W
Mo, 15.04. 12:30 14 3 29 270° W
Mo, 15.04. 12:00 11 2 22 250° W
Ortszeit Untergrenze Bedeckung Gattung
total tief tief mittel hoch
Mo, 15.04. 14:00 870 m 6/8 6/8 - - -
Mo, 15.04. 8:00 1230 m 8/8 1/8 - - -
Mo, 15.04. 2:00 6900 m 6/8 5/8 - - -
So, 14.04. 20:00 6900 m 7/8 7/8 - - -
So, 14.04. 14:00 7800 m 7/8 0/8 - - -
So, 14.04. 8:00 9000 m 4/8 0/8 - - -
So, 14.04. 2:00 7500 m 8/8 0/8 - - -
Sa, 13.04. 20:00 9000 m 8/8 0/8 - - -
Ortszeit Bedeckungsgrad in Achtel und Wolkenuntergrenze
Mo, 15.04. 15:00 3(900m) 7(1500m) 7(2100m)
Mo, 15.04. 14:50 3(900m) 7(1500m) 7(2100m)
Mo, 15.04. 14:40 7
Mo, 15.04. 14:30 4(990m) 7(1800m) 7(2400m)
Mo, 15.04. 14:20 4(990m) 7(1800m) 7(2400m)
Mo, 15.04. 14:10 7
Mo, 15.04. 14:00 2(870m) 5(1500m) 6(2100m)
Mo, 15.04. 13:30 5(660m) 7(1500m) 7(2100m)
Mo, 15.04. 13:00 3(570m) 7(1800m) 7(5700m)
Mo, 15.04. 12:30 5(420m) 7(2100m) 7(3000m)
Mo, 15.04. 12:00 4(3600m) 6(5700m) 6(6300m)
Ortszeit Stationsdruck (hPa) Tendenz (hPa in 3 Std.)
Mo, 15.04. 14:00 908 - 2,5
Mo, 15.04. 8:00 911 - 1,1
Mo, 15.04. 2:00 913 - 1,7
So, 14.04. 20:00 916 - 1,4
So, 14.04. 14:00 919 - 1,0
So, 14.04. 8:00 920 - 0,4
So, 14.04. 2:00 921 - 1,0
Sa, 13.04. 20:00 922 - 0,8
Ortszeit Stationsdruck (hPa) Tendenz (hPa in 3 Std.)
Mo, 15.04. 15:00 907 - 3,4
Mo, 15.04. 14:50 907 keine Meldung
Mo, 15.04. 14:40 907 keine Meldung
Mo, 15.04. 14:30 908 - 2,6
Mo, 15.04. 14:20 908 keine Meldung
Mo, 15.04. 14:10 908 keine Meldung
Mo, 15.04. 14:00 908 - 2,5
Mo, 15.04. 13:30 909 - 2,0
Mo, 15.04. 13:00 909 - 1,7
Mo, 15.04. 12:30 910 - 1,1
Mo, 15.04. 12:00 910 - 0,9
Ortszeit Schneehöhe (cm)
Mo, 15.04. 14:00 0
Mo, 15.04. 8:00 0
Mo, 15.04. 2:00 0
So, 14.04. 20:00 0
So, 14.04. 14:00 0
So, 14.04. 8:00 0
So, 14.04. 2:00 0
Sa, 13.04. 20:00 0
Ortszeit Schneehöhe (cm)
Mo, 15.04. 15:00 0
Mo, 15.04. 14:50 0
Mo, 15.04. 14:40 -
Mo, 15.04. 14:30 0
Mo, 15.04. 14:20 0
Mo, 15.04. 14:10 -
Mo, 15.04. 14:00 0
Mo, 15.04. 13:30 0
Mo, 15.04. 13:00 0
Mo, 15.04. 12:30 0
Mo, 15.04. 12:00 0
Link zu dieser Seite / Seite empfehlen

Das Wetter in ...